Map

Track Data

SID SEASON NUMBER BASIN SUBBASIN NAME ISO_TIME NATURE LAT LON WMO_WIND WMO_PRES WMO_AGENCY TRACK_TYPE DIST2LAND LANDFALL IFLAG USA_AGENCY USA_ATCF_ID USA_LAT USA_LON USA_RECORD USA_STATUS USA_WIND USA_PRES USA_SSHS USA_R34_NE USA_R34_SE USA_R34_SW USA_R34_NW USA_R50_NE USA_R50_SE USA_R50_SW USA_R50_NW USA_R64_NE USA_R64_SE USA_R64_SW USA_R64_NW USA_POCI USA_ROCI USA_RMW USA_EYE TOKYO_LAT TOKYO_LON TOKYO_GRADE TOKYO_WIND TOKYO_PRES TOKYO_R50_DIR TOKYO_R50_LONG TOKYO_R50_SHORT TOKYO_R30_DIR TOKYO_R30_LONG TOKYO_R30_SHORT TOKYO_LAND CMA_LAT CMA_LON CMA_CAT CMA_WIND CMA_PRES HKO_LAT HKO_LON HKO_CAT HKO_WIND HKO_PRES NEWDELHI_LAT NEWDELHI_LON NEWDELHI_GRADE NEWDELHI_WIND NEWDELHI_PRES NEWDELHI_CI NEWDELHI_DP NEWDELHI_POCI REUNION_LAT REUNION_LON REUNION_TYPE REUNION_WIND REUNION_PRES REUNION_TNUM REUNION_CI REUNION_RMW REUNION_R34_NE REUNION_R34_SE REUNION_R34_SW REUNION_R34_NW REUNION_R50_NE REUNION_R50_SE REUNION_R50_SW REUNION_R50_NW REUNION_R64_NE REUNION_R64_SE REUNION_R64_SW REUNION_R64_NW BOM_LAT BOM_LON BOM_TYPE BOM_WIND BOM_PRES BOM_TNUM BOM_CI BOM_RMW BOM_R34_NE BOM_R34_SE BOM_R34_SW BOM_R34_NW BOM_R50_NE BOM_R50_SE BOM_R50_SW BOM_R50_NW BOM_R64_NE BOM_R64_SE BOM_R64_SW BOM_R64_NW BOM_ROCI BOM_POCI BOM_EYE BOM_POS_METHOD BOM_PRES_METHOD NADI_LAT NADI_LON NADI_CAT NADI_WIND NADI_PRES WELLINGTON_LAT WELLINGTON_LON WELLINGTON_WIND WELLINGTON_PRES DS824_LAT DS824_LON DS824_STAGE DS824_WIND DS824_PRES TD9636_LAT TD9636_LON TD9636_STAGE TD9636_WIND TD9636_PRES TD9635_LAT TD9635_LON TD9635_WIND TD9635_PRES TD9635_ROCI NEUMANN_LAT NEUMANN_LON NEUMANN_CLASS NEUMANN_WIND NEUMANN_PRES MLC_LAT MLC_LON MLC_CLASS MLC_WIND MLC_PRES USA_GUST BOM_GUST BOM_GUST_PER REUNION_GUST REUNION_GUST_PER USA_SEAHGT USA_SEARAD_NE USA_SEARAD_SE USA_SEARAD_SW USA_SEARAD_NW STORM_SPEED STORM_DIR
1929275N12085 1929 64 NI BB NOT_NAMED 1929-10-02 00:00:00 TS 11.9000 84.9000 main 515 492 _________O____ -1 11.9000 84.9000 TC 30 5 315
1929275N12085 1929 64 NI BB NOT_NAMED 1929-10-02 03:00:00 TS 12.0583 84.7367 main 491 467 _________PO___ -1 12.1375 84.6550 TC 30 11.9000 84.9000 1 6 316
1929275N12085 1929 64 NI BB NOT_NAMED 1929-10-02 06:00:00 TS 12.3101 84.4902 main 467 430 _________OP___ -1 12.4000 84.4000 TC 30 12.1753 84.6255 1 7 317
1929275N12085 1929 64 NI BB NOT_NAMED 1929-10-02 09:00:00 TS 12.5930 84.2317 main 430 404 _________PP___ -1 12.7000 84.1350 TC 30 12.4503 84.3606 1 7 320
1929275N12085 1929 64 NI BB NOT_NAMED 1929-10-02 12:00:00 TS 12.8626 84.0077 main 403 379 _________OP___ -1 13.0000 83.9000 TC 30 12.7252 84.1153 1 7 323
1929275N12085 1929 64 NI BB NOT_NAMED 1929-10-02 15:00:00 TS 13.1250 83.8174 main 379 367 _________PO___ -1 13.2500 83.7349 TC 30 13.0000 83.9000 1 6 327
1929275N12085 1929 64 NI BB NOT_NAMED 1929-10-02 18:00:00 TS 13.3874 83.6605 main 367 345 _________OP___ -1 13.5000 83.6000 TC 30 13.2749 83.7210 1 6 332
1929275N12085 1929 64 NI BB NOT_NAMED 1929-10-02 21:00:00 TS 13.6749 83.5098 main 345 322 _________PP___ -1 13.8000 83.4500 TC 30 13.5498 83.5697 1 6 334
1929275N12085 1929 64 NI BB NOT_NAMED 1929-10-03 00:00:00 TS 13.9624 83.3668 main 312 283 _________OP___ -1 14.1000 83.3000 TC 30 13.8249 83.4335 1 6 333
1929275N12085 1929 64 NI BB NOT_NAMED 1929-10-03 03:00:00 TS 14.2250 83.2250 main 283 248 _________PO___ -1 14.3500 83.1499 TC 30 14.1000 83.3000 1 6 332
1929275N12085 1929 64 NI BB NOT_NAMED 1929-10-03 06:00:00 TS 14.4895 83.0729 main 248 208 _________OP___ -1 14.6000 83.0000 TC 30 14.3790 83.1459 1 6 332
1929275N12085 1929 64 NI BB NOT_NAMED 1929-10-03 09:00:00 TS 14.7787 82.9212 main 208 173 _________PP___ -1 14.9000 82.8500 TC 30 14.6575 82.9924 1 7 333
1929275N12085 1929 64 NI BB NOT_NAMED 1929-10-03 12:00:00 TS 15.0661 82.7714 main 173 144 _________OP___ -1 15.2000 82.7000 TC 30 14.9322 82.8428 1 6 332
1929275N12085 1929 64 NI BB NOT_NAMED 1929-10-03 15:00:00 TS 15.3288 82.6212 main 144 109 _________PO___ -1 15.4575 82.5425 TC 30 15.2000 82.7000 1 6 331
1929275N12085 1929 64 NI BB NOT_NAMED 1929-10-03 18:00:00 TS 15.5786 82.4738 main 109 84 _________OP___ -1 15.7000 82.4000 TC 30 15.4572 82.5475 1 6 332
1929275N12085 1929 64 NI BB NOT_NAMED 1929-10-03 21:00:00 TS 15.8288 82.3450 main 79 46 _________PP___ -1 15.9500 82.2850 TC 30 15.7075 82.4051 1 5 336
1929275N12085 1929 64 NI BB NOT_NAMED 1929-10-04 00:00:00 TS 16.0770 82.2425 main 46 24 _________OP___ -1 16.2000 82.2000 TC 30 15.9541 82.2851 1 5 341
1929275N12085 1929 64 NI BB NOT_NAMED 1929-10-04 03:00:00 TS 16.3250 82.1638 main 24 0 _________PO___ -1 16.4500 82.1275 TC 30 16.2000 82.2000 1 5 347
1929275N12085 1929 64 NI BB NOT_NAMED 1929-10-04 06:00:00 TS 16.5709 82.1279 main 0 0 _________OP___ -1 16.7000 82.1000 TC 30 16.4418 82.1558 1 5 357
1929275N12085 1929 64 NI BB NOT_NAMED 1929-10-04 09:00:00 TS 16.8137 82.1412 main 0 0 _________PP___ -1 16.9425 82.1350 TC 30 16.6849 82.1474 1 5 7
1929275N12085 1929 64 NI BB NOT_NAMED 1929-10-04 12:00:00 TS 17.0678 82.1826 main 0 0 _________OP___ -1 17.2000 82.2000 TC 30 16.9356 82.1652 1 5 8
1929275N12085 1929 64 NI BB NOT_NAMED 1929-10-04 15:00:00 TS 17.3462 82.2250 main 0 0 _________PO___ -1 17.4925 82.2500 TC 30 17.2000 82.2000 1 6 8
1929275N12085 1929 64 NI BB NOT_NAMED 1929-10-04 18:00:00 TS 17.6469 82.2637 main 0 0 _________OP___ -1 17.8000 82.3000 TC 30 17.4937 82.2275 1 6 8
1929275N12085 1929 64 NI BB NOT_NAMED 1929-10-04 21:00:00 TS 17.9537 82.3063 main 0 0 _________PP___ -1 18.1075 82.3425 TC 30 17.8000 82.2700 1 6 9
1929275N12085 1929 64 NI BB NOT_NAMED 1929-10-05 00:00:00 TS 18.2531 82.3638 main 0 0 _________OP___ -1 18.4000 82.4000 TC 30 18.1062 82.3275 1 6 13
1929275N12085 1929 64 NI BB NOT_NAMED 1929-10-05 03:00:00 TS 18.5288 82.4463 main 0 0 _________PO___ -1 18.6575 82.4925 TC 30 18.4000 82.4000 1 6 17
1929275N12085 1929 64 NI BB NOT_NAMED 1929-10-05 06:00:00 TS 18.7842 82.5428 main 0 0 _________OP___ -1 18.9000 82.6000 TC 30 18.6684 82.4856 1 5 20
1929275N12085 1929 64 NI BB NOT_NAMED 1929-10-05 09:00:00 TS 19.0325 82.6425 main 0 0 _________PP___ -1 19.1425 82.7000 TC 30 18.9225 82.5850 1 5 21
1929275N12085 1929 64 NI BB NOT_NAMED 1929-10-05 12:00:00 TS 19.2827 82.7459 main 0 0 _________OP___ -1 19.4000 82.8000 TC 30 19.1653 82.6919 1 6 20
1929275N12085 1929 64 NI BB NOT_NAMED 1929-10-05 15:00:00 TS 19.5575 82.8500 main 0 0 _________PO___ -1 19.7150 82.9000 TC 30 19.4000 82.8000 1 6 20
1929275N12085 1929 64 NI BB NOT_NAMED 1929-10-05 18:00:00 TS 19.8344 82.9581 main 0 0 _________OP___ -1 20.0000 83.0000 TC 30 19.6688 82.9161 1 5 22
1929275N12085 1929 64 NI BB NOT_NAMED 1929-10-05 21:00:00 TS 20.0600 83.0724 main 0 0 _________PP___ -1 20.1950 83.1150 TC 30 19.9250 83.0298 1 4 27
1929275N12085 1929 64 NI BB NOT_NAMED 1929-10-06 00:00:00 TS 20.2219 83.1643 main 0 0 _________OP___ -1 20.3000 83.2000 TC 30 20.1438 83.1286 1 3 26
1929275N12085 1929 64 NI BB NOT_NAMED 1929-10-06 03:00:00 TS 20.3112 83.2075 main 0 0 _________PO___ -1 20.3225 83.2150 TC 30 20.3000 83.2000 1 1 21
1929275N12085 1929 64 NI BB NOT_NAMED 1929-10-06 06:00:00 TS 20.3323 83.2145 main 0 0 _________OP___ -1 20.3000 83.2000 TC 30 20.3646 83.2289 1 0 0
1929275N12085 1929 64 NI BB NOT_NAMED 1929-10-06 09:00:00 TS 20.3337 83.2151 main 0 0 _________PP___ -1 20.3000 83.2000 TC 30 20.3675 83.2302 1 0 0
1929275N12085 1929 64 NI BB NOT_NAMED 1929-10-06 12:00:00 TS 20.3183 83.2082 main 0 0 _________OP___ -1 20.3000 83.2000 TC 30 20.3365 83.2163 1 0 212
1929275N12085 1929 64 NI BB NOT_NAMED 1929-10-06 15:00:00 TS 20.3000 83.2000 main 0 0 _________PO___ -1 20.3000 83.2000 TC 30 20.3000 83.2000 1 1 0
1929275N12085 1929 64 NI BB NOT_NAMED 1929-10-06 18:00:00 TS 20.2735 83.1819 main 0 0 _________OP___ -1 20.3000 83.2000 TC 30 20.2471 83.1638 1 1 211
1929275N12085 1929 64 NI BB NOT_NAMED 1929-10-06 21:00:00 TS 20.2324 83.1553 main 0 0 _________PP___ -1 20.2625 83.1776 TC 30 20.2023 83.1331 1 0 0
1929275N12085 1929 64 NI BB NOT_NAMED 1929-10-07 00:00:00 TS 20.2532 83.1680 main 0 0 _________OP___ -1 20.3000 83.2000 TC 30 20.2064 83.1359 1 2 29
1929275N12085 1929 64 NI BB NOT_NAMED 1929-10-07 03:00:00 TS 20.3950 83.2526 main 0 0 _________PO___ -1 20.4899 83.3052 TC 30 20.3000 83.2000 1 5 31
1929275N12085 1929 64 NI BB NOT_NAMED 1929-10-07 06:00:00 TS 20.6638 83.4279 main 0 0 _________OP___ -1 20.8000 83.5000 TC 30 20.5276 83.3559 1 7 33
1929275N12085 1929 64 NI BB NOT_NAMED 1929-10-07 09:00:00 TS 21.0151 83.6797 main 0 0 _________PP___ -1 21.1851 83.7848 TC 30 20.8452 83.5745 1 9 34
1929275N12085 1929 64 NI BB NOT_NAMED 1929-10-07 12:00:00 TS 21.4076 83.9655 main 0 0 _________OP___ -1 21.6000 84.1000 TC 30 21.2151 83.8310 1 9 34
1929275N12085 1929 64 NI BB NOT_NAMED 1929-10-07 15:00:00 TS 21.7787 84.2289 main 0 0 _________PO___ -1 21.9574 84.3577 TC 30 21.6000 84.1000 1 8 33
1929275N12085 1929 64 NI BB NOT_NAMED 1929-10-07 18:00:00 TS 22.1112 84.4633 main 0 0 _________OP___ -1 22.3000 84.6000 TC 30 21.9697 84.3608 1 8 33
1929275N12085 1929 64 NI BB NOT_NAMED 1929-10-07 21:00:00 TS 22.4526 84.7061 main 0 0 _________PP___ -1 22.6476 84.8472 TC 30 22.3226 84.6121 1 8 33
1929275N12085 1929 64 NI BB NOT_NAMED 1929-10-08 00:00:00 TS 22.7761 84.9382 main 0 0 _________OP___ -1 23.0000 85.1000 TC 30 22.6642 84.8573 1 7 33
1929275N12085 1929 64 NI BB NOT_NAMED 1929-10-08 03:00:00 NR 23.0000 85.1000 main 0 __________O___ -1 TC 23.0000 85.1000 1 5 33

About IBTrACS Database

This database is a web-friendly format of International Best Track Archive for Climate Stewardship (IBTrACS), a global best track data archive curated by NOAA dating back to 1842.

Updated: 2021-12-03